createdAt,value
2019-05-16T00:01:50.227Z,15.45
2019-05-16T00:04:21.200Z,18.90
2019-05-16T00:06:52.180Z,16.65
2019-05-16T00:09:23.167Z,13.32
2019-05-16T00:11:54.111Z,23.05
2019-05-16T00:14:25.084Z,17.42
2019-05-16T00:16:56.037Z,22.30
2019-05-16T00:19:28.772Z,20.23
2019-05-16T00:21:59.651Z,21.00
2019-05-16T00:24:30.648Z,24.70
2019-05-16T00:27:01.600Z,24.92
2019-05-16T00:29:32.572Z,20.23
2019-05-16T00:32:03.545Z,30.92
2019-05-16T00:34:34.516Z,20.48
2019-05-16T00:37:05.512Z,30.92
2019-05-16T00:39:38.662Z,23.25
2019-05-16T00:42:09.181Z,26.93
2019-05-16T00:44:40.123Z,19.82
2019-05-16T00:47:11.105Z,20.80
2019-05-16T00:49:42.045Z,19.87
2019-05-16T00:52:13.097Z,25.35
2019-05-16T00:54:44.040Z,18.35
2019-05-16T00:57:15.709Z,19.80
2019-05-16T00:59:48.563Z,16.80
2019-05-16T01:02:20.740Z,18.12
2019-05-16T01:04:51.741Z,15.28
2019-05-16T01:07:22.713Z,15.32
2019-05-16T01:09:53.652Z,15.78
2019-05-16T01:12:24.623Z,18.87
2019-05-16T01:14:55.649Z,20.23
2019-05-16T01:17:28.313Z,19.70
2019-05-16T01:19:59.459Z,18.30
2019-05-16T01:22:30.506Z,19.95
2019-05-16T01:25:01.458Z,25.92
2019-05-16T01:27:32.496Z,19.07
2019-05-16T01:30:03.841Z,22.62
2019-05-16T01:32:34.820Z,20.65
2019-05-16T01:35:08.348Z,14.60
2019-05-16T01:37:39.541Z,17.57
2019-05-16T01:40:10.803Z,19.32
2019-05-16T01:42:41.783Z,20.97
2019-05-16T01:45:13.024Z,15.18
2019-05-16T01:47:43.995Z,16.87
2019-05-16T01:50:18.078Z,17.73
2019-05-16T01:52:49.310Z,15.25
2019-05-16T01:55:20.252Z,17.12
2019-05-16T01:57:51.235Z,17.60
2019-05-16T02:00:25.524Z,18.82
2019-05-16T02:02:55.103Z,17.95
2019-05-16T02:05:27.956Z,23.77
2019-05-16T02:07:58.740Z,22.17
2019-05-16T02:10:29.762Z,19.17
2019-05-16T02:13:00.700Z,15.53
2019-05-16T02:15:31.752Z,18.00
2019-05-16T02:18:02.793Z,21.68
2019-05-16T02:20:33.775Z,19.02
2019-05-16T02:23:04.748Z,23.35
2019-05-16T02:25:38.228Z,19.32
2019-05-16T02:28:08.398Z,23.35
2019-05-16T02:30:42.228Z,18.02
2019-05-16T02:33:12.047Z,22.70
2019-05-16T02:35:43.016Z,21.00
2019-05-16T02:38:13.993Z,17.32
2019-05-16T02:40:44.943Z,17.90
2019-05-16T02:43:15.991Z,22.73
2019-05-16T02:45:46.939Z,21.27
2019-05-16T02:48:20.941Z,26.70
2019-05-16T02:50:51.475Z,18.77
2019-05-16T02:53:23.114Z,19.85
2019-05-16T02:55:54.061Z,19.17
2019-05-16T02:58:25.141Z,16.80
2019-05-16T03:00:56.078Z,17.27
2019-05-16T03:03:27.238Z,19.73
2019-05-16T03:06:01.084Z,17.73
2019-05-16T03:08:32.756Z,19.37
2019-05-16T03:11:03.899Z,18.23
2019-05-16T03:13:36.590Z,22.15
2019-05-16T03:16:12.128Z,21.48
2019-05-16T03:18:43.881Z,22.13
2019-05-16T03:21:14.871Z,25.43
2019-05-16T03:23:45.844Z,24.20
2019-05-16T03:26:16.788Z,24.10
2019-05-16T03:28:47.767Z,16.93
2019-05-16T03:31:23.829Z,18.87
2019-05-16T03:33:58.718Z,25.50
2019-05-16T03:36:25.551Z,18.35
2019-05-16T03:38:56.837Z,19.98
2019-05-16T03:41:30.683Z,18.27
2019-05-16T03:44:01.522Z,20.17
2019-05-16T03:46:32.597Z,16.57
2019-05-16T03:49:03.585Z,20.70
2019-05-16T03:51:34.629Z,17.42
2019-05-16T03:54:05.637Z,18.35
2019-05-16T03:56:36.680Z,19.32
2019-05-16T03:59:10.724Z,20.82
2019-05-16T04:01:41.024Z,23.30
2019-05-16T04:04:12.377Z,25.12
2019-05-16T04:06:43.589Z,20.17
2019-05-16T04:09:14.534Z,16.85
2019-05-16T04:11:45.506Z,20.45
2019-05-16T04:14:16.450Z,19.70
2019-05-16T04:16:50.893Z,26.80
2019-05-16T04:19:21.235Z,20.45
2019-05-16T04:21:52.492Z,23.38
2019-05-16T04:24:23.432Z,22.95
2019-05-16T04:26:54.409Z,26.30
2019-05-16T04:29:25.353Z,24.23
2019-05-16T04:31:56.405Z,23.00
2019-05-16T04:34:27.366Z,22.02
2019-05-16T04:37:01.126Z,29.80
2019-05-16T04:39:32.080Z,19.82
2019-05-16T04:42:03.292Z,17.75
2019-05-16T04:44:34.307Z,18.12
2019-05-16T04:47:05.278Z,20.27
2019-05-16T04:49:36.218Z,19.32
2019-05-16T04:52:07.204Z,19.32
2019-05-16T04:54:41.476Z,17.17
2019-05-16T04:57:11.804Z,21.65
2019-05-16T04:59:44.199Z,16.80
2019-05-16T05:02:15.175Z,14.70
2019-05-16T05:04:46.107Z,15.03
2019-05-16T05:07:20.366Z,14.55
2019-05-16T05:09:51.385Z,21.30
2019-05-16T05:12:22.601Z,18.30
2019-05-16T05:14:53.572Z,16.20
2019-05-16T05:17:24.587Z,25.65
2019-05-16T05:19:56.562Z,15.85
2019-05-16T05:22:27.505Z,16.77
2019-05-16T05:25:00.155Z,19.23
2019-05-16T05:27:31.302Z,17.27
2019-05-16T05:30:02.355Z,19.57
2019-05-16T05:32:33.283Z,15.85
2019-05-16T05:35:05.860Z,19.48
2019-05-16T05:37:36.856Z,18.20
2019-05-16T05:40:10.553Z,18.20
2019-05-16T05:42:41.993Z,18.57
2019-05-16T05:45:13.427Z,14.95
2019-05-16T05:47:44.446Z,19.20
2019-05-16T05:50:15.652Z,15.38
2019-05-16T05:52:46.597Z,14.55
2019-05-16T05:55:19.817Z,17.17
2019-05-16T05:57:50.783Z,17.77
2019-05-16T06:00:21.884Z,20.00
2019-05-16T06:02:52.810Z,16.55
2019-05-16T06:05:23.790Z,21.25
2019-05-16T06:07:54.760Z,16.42
2019-05-16T06:10:25.712Z,16.40
2019-05-16T06:12:56.685Z,23.22
2019-05-16T06:15:27.825Z,23.92
2019-05-16T06:18:00.259Z,20.48
2019-05-16T06:20:31.423Z,19.30
2019-05-16T06:23:02.398Z,16.60
2019-05-16T06:25:33.339Z,21.55
2019-05-16T06:28:04.308Z,18.77
2019-05-16T06:30:35.266Z,23.02
2019-05-16T06:33:06.242Z,20.25
2019-05-16T06:35:37.182Z,27.10
2019-05-16T06:38:09.963Z,22.25
2019-05-16T06:40:40.804Z,30.15
2019-05-16T06:43:12.250Z,21.68
2019-05-16T06:45:43.207Z,16.55
2019-05-16T06:48:14.253Z,18.60
2019-05-16T06:50:45.827Z,18.95
2019-05-16T06:53:16.796Z,19.00
2019-05-16T06:55:49.780Z,17.57
2019-05-16T06:58:22.247Z,21.55
2019-05-16T07:00:53.105Z,18.12
2019-05-16T07:03:24.227Z,18.70
2019-05-16T07:05:55.188Z,15.45
2019-05-16T07:08:26.158Z,18.42
2019-05-16T07:10:57.102Z,18.77
2019-05-16T07:13:30.147Z,21.62
2019-05-16T07:16:00.771Z,16.52
2019-05-16T07:18:31.776Z,21.42
2019-05-16T07:21:02.823Z,16.97
2019-05-16T07:23:33.873Z,15.15
2019-05-16T07:26:04.818Z,20.92
2019-05-16T07:28:35.807Z,30.88
2019-05-16T07:31:17.592Z,22.58
2019-05-16T07:33:40.675Z,17.77
2019-05-16T07:36:11.780Z,15.10
2019-05-16T07:38:42.773Z,17.82
2019-05-16T07:41:14.048Z,18.98
2019-05-16T07:43:46.492Z,16.12
2019-05-16T07:46:17.438Z,17.07
2019-05-16T07:48:51.393Z,11.53
2019-05-16T07:51:21.097Z,21.75
2019-05-16T07:53:52.043Z,13.93
2019-05-16T07:56:23.041Z,18.75
2019-05-16T07:58:53.992Z,14.63
2019-05-16T08:01:24.977Z,14.50
2019-05-16T08:03:55.934Z,16.07
2019-05-16T08:06:30.537Z,14.13
2019-05-16T08:09:00.164Z,13.78
2019-05-16T08:11:31.421Z,12.10
2019-05-16T08:14:02.390Z,17.57
2019-05-16T08:16:33.365Z,10.08
2019-05-16T08:19:04.428Z,10.78
2019-05-16T08:21:35.553Z,13.20
2019-05-16T08:24:08.117Z,11.95
2019-05-16T08:26:42.931Z,12.98
2019-05-16T08:31:44.819Z,15.75
2019-05-16T08:34:15.801Z,18.05
2019-05-16T08:36:46.858Z,12.35
2019-05-16T08:39:17.835Z,14.07
2019-05-16T08:41:52.060Z,10.30
2019-05-16T08:44:21.742Z,17.37
2019-05-16T08:46:57.721Z,9.65
2019-05-16T08:49:25.623Z,12.40
2019-05-16T08:51:56.576Z,10.15
2019-05-16T08:54:31.531Z,11.00
2019-05-16T08:57:17.443Z,9.50
2019-05-16T09:02:05.702Z,10.23
2019-05-16T09:04:36.809Z,10.80
2019-05-16T09:07:07.819Z,12.05
2019-05-16T09:09:44.328Z,12.88
2019-05-16T09:10:34.528Z,13.48
2019-05-16T09:10:35.053Z,10.30
2019-05-16T09:12:11.477Z,10.15
2019-05-16T09:14:42.535Z,15.45
2019-05-16T09:17:13.568Z,14.83
2019-05-16T09:19:47.015Z,7.62
2019-05-16T09:22:18.055Z,15.20
2019-05-16T09:24:49.233Z,8.78
2019-05-16T09:27:20.177Z,7.20
2019-05-16T09:29:51.159Z,11.63
2019-05-16T09:32:22.104Z,11.45
2019-05-16T09:34:53.080Z,7.25
2019-05-16T09:37:26.580Z,8.48
2019-05-16T09:39:57.234Z,8.70
2019-05-16T09:42:28.519Z,10.20
2019-05-16T09:44:59.513Z,8.73
2019-05-16T09:47:30.557Z,9.70
2019-05-16T09:50:01.543Z,14.93
2019-05-16T09:52:32.484Z,14.30
2019-05-16T09:55:03.523Z,7.87
2019-05-16T09:57:37.313Z,7.40
2019-05-16T10:00:11.332Z,10.95
2019-05-16T10:02:42.383Z,8.45
2019-05-16T10:05:13.887Z,7.90
2019-05-16T10:07:47.028Z,12.93
2019-05-16T10:10:18.503Z,7.83
2019-05-16T10:12:49.468Z,9.70
2019-05-16T10:15:21.043Z,7.93
2019-05-16T10:17:52.841Z,12.10
2019-05-16T10:20:23.813Z,5.97
2019-05-16T10:22:57.699Z,8.07
2019-05-16T10:25:27.899Z,6.37
2019-05-16T10:27:58.942Z,5.70
2019-05-16T10:30:30.436Z,6.07
2019-05-16T10:33:01.409Z,6.37
2019-05-16T10:35:32.435Z,5.50
2019-05-16T10:38:03.407Z,6.83
2019-05-16T10:40:36.701Z,13.43
2019-05-16T10:43:07.564Z,14.93
2019-05-16T10:45:39.261Z,7.63
2019-05-16T10:48:10.242Z,8.80
2019-05-16T10:50:41.294Z,6.70
2019-05-16T10:53:32.459Z,6.03
2019-05-16T10:55:47.625Z,8.27
2019-05-16T10:58:32.878Z,8.50
2019-05-16T11:01:15.104Z,6.90
2019-05-16T11:03:23.678Z,7.13
2019-05-16T11:06:02.838Z,6.00
2019-05-16T11:08:27.409Z,15.70
2019-05-16T11:10:58.420Z,6.57
2019-05-16T11:13:29.407Z,5.90
2019-05-16T11:16:00.389Z,5.83
2019-05-16T11:18:31.373Z,6.37
2019-05-16T11:21:02.359Z,6.20
2019-05-16T11:23:33.338Z,10.97
2019-05-16T11:26:04.323Z,6.40
2019-05-16T11:28:36.876Z,6.63
2019-05-16T11:31:27.451Z,8.03
2019-05-16T11:33:58.432Z,8.93
2019-05-16T11:36:29.371Z,5.40
2019-05-16T11:39:01.942Z,5.90
2019-05-16T11:41:33.584Z,9.60
2019-05-16T11:44:06.664Z,8.40
2019-05-16T11:46:37.999Z,6.87
2019-05-16T11:49:08.976Z,6.40
2019-05-16T11:51:39.967Z,6.60
2019-05-16T11:54:10.969Z,7.90
2019-05-16T11:56:41.943Z,6.60
2019-05-16T11:59:12.891Z,8.83
2019-05-16T12:01:43.868Z,8.33
2019-05-16T12:04:17.169Z,6.60
2019-05-16T12:06:47.486Z,5.80
2019-05-16T12:09:18.446Z,6.47
2019-05-16T12:12:03.158Z,4.60
2019-05-16T12:14:22.071Z,5.77
2019-05-16T12:16:53.134Z,11.50
2019-05-16T12:19:24.194Z,16.40
2019-05-16T12:21:57.087Z,6.20
2019-05-16T12:24:36.367Z,7.20
2019-05-16T12:27:00.890Z,6.53
2019-05-16T12:29:31.993Z,8.43
2019-05-16T12:32:03.387Z,9.03
2019-05-16T12:34:36.751Z,10.10
2019-05-16T12:37:07.566Z,6.97
2019-05-16T12:39:38.795Z,6.20
2019-05-16T12:42:09.781Z,5.78
2019-05-16T12:44:40.758Z,6.10
2019-05-16T12:47:11.721Z,8.23
2019-05-16T12:49:42.683Z,4.73
2019-05-16T12:52:13.630Z,5.53
2019-05-16T12:54:47.353Z,6.42
2019-05-16T12:57:18.210Z,6.25
2019-05-16T12:59:52.446Z,6.25
2019-05-16T13:02:22.128Z,8.03
2019-05-16T13:04:53.125Z,5.75
2019-05-16T13:07:24.080Z,9.33
2019-05-16T13:09:55.058Z,10.28
2019-05-16T13:12:27.079Z,10.58
2019-05-16T13:14:58.372Z,7.65
2019-05-16T13:17:29.311Z,9.65
2019-05-16T13:20:00.281Z,9.55
2019-05-16T13:22:32.545Z,10.43
2019-05-16T13:25:03.628Z,8.38
2019-05-16T13:27:37.020Z,8.98
2019-05-16T13:30:11.938Z,8.60
2019-05-16T13:32:42.987Z,9.03
2019-05-16T13:35:16.971Z,8.63
2019-05-16T13:37:48.012Z,8.00
2019-05-16T13:40:20.233Z,7.15
2019-05-16T13:42:51.216Z,7.65
2019-05-16T13:45:22.785Z,8.10
2019-05-16T13:47:53.840Z,9.43
2019-05-16T13:50:27.111Z,9.70
2019-05-16T13:52:58.520Z,14.73
2019-05-16T13:55:30.668Z,8.20
2019-05-16T13:58:01.769Z,8.50
2019-05-16T14:00:32.809Z,9.63
2019-05-16T14:03:03.796Z,9.53
2019-05-16T14:05:34.729Z,12.00
2019-05-16T14:08:06.835Z,8.35
2019-05-16T14:10:38.149Z,9.63
2019-05-16T14:13:09.117Z,9.10
2019-05-16T14:15:41.006Z,8.50
2019-05-16T14:18:12.055Z,11.90
2019-05-16T14:20:42.993Z,12.23
2019-05-16T14:23:13.986Z,10.00
2019-05-16T14:25:48.063Z,11.25
2019-05-16T14:28:17.855Z,11.50
2019-05-16T14:30:48.991Z,11.83
2019-05-16T14:33:20.967Z,10.30
2019-05-16T14:35:52.198Z,10.40
2019-05-16T14:38:23.187Z,16.27
2019-05-16T14:40:54.187Z,10.78
2019-05-16T14:43:27.236Z,12.50
2019-05-16T14:45:58.204Z,12.20
2019-05-16T14:48:29.328Z,12.35
2019-05-16T14:51:00.323Z,15.53
2019-05-16T14:53:31.304Z,10.08
2019-05-16T14:56:02.348Z,10.05
2019-05-16T14:58:33.332Z,10.23
2019-05-16T15:01:07.167Z,12.98
2019-05-16T15:03:37.213Z,12.23
2019-05-16T15:06:09.003Z,10.68
2019-05-16T15:08:40.115Z,21.10
2019-05-16T15:11:14.040Z,17.85
2019-05-16T15:13:43.750Z,11.30
2019-05-16T15:16:16.857Z,15.78
2019-05-16T15:18:47.692Z,12.30
2019-05-16T15:21:18.861Z,11.22
2019-05-16T15:23:49.869Z,10.70
2019-05-16T15:26:20.873Z,10.85
2019-05-16T15:28:51.837Z,12.33
2019-05-16T15:31:22.805Z,11.53
2019-05-16T15:33:53.759Z,18.32
2019-05-16T15:36:26.946Z,11.25
2019-05-16T15:38:59.506Z,13.90
2019-05-16T15:41:30.067Z,15.58
2019-05-16T15:44:01.013Z,12.63
2019-05-16T15:46:32.099Z,12.65
2019-05-16T15:49:09.038Z,10.88
2019-05-16T15:51:36.994Z,10.30
2019-05-16T15:54:08.272Z,11.90
2019-05-16T15:56:41.818Z,12.55
2019-05-16T15:59:12.806Z,18.75
2019-05-16T16:01:43.801Z,11.60
2019-05-16T16:04:17.402Z,38.98
2019-05-16T16:06:47.674Z,37.75
2019-05-16T16:09:18.665Z,15.68
2019-05-16T16:11:49.615Z,12.98
2019-05-16T16:14:20.719Z,18.98
2019-05-16T16:16:51.731Z,12.28
2019-05-16T16:19:26.470Z,12.73
2019-05-16T16:21:58.027Z,14.80
2019-05-16T16:24:30.092Z,9.50
2019-05-16T16:27:01.090Z,25.90
2019-05-16T16:29:33.221Z,31.93
2019-05-16T16:32:06.339Z,24.80
2019-05-16T16:34:37.132Z,13.10
2019-05-16T16:37:08.151Z,17.67
2019-05-16T16:39:40.286Z,31.77
2019-05-16T16:42:11.300Z,22.98
2019-05-16T16:44:42.670Z,14.18
2019-05-16T16:47:13.658Z,10.95
2019-05-16T16:49:44.654Z,15.18
2019-05-16T16:52:16.752Z,12.68
2019-05-16T16:54:48.070Z,14.68
2019-05-16T16:57:19.079Z,14.00
2019-05-16T16:59:50.066Z,13.80
2019-05-16T17:02:21.120Z,16.00
2019-05-16T17:04:52.225Z,14.15
2019-05-16T17:07:23.254Z,13.78
2019-05-16T17:09:56.260Z,20.52
2019-05-16T17:12:26.888Z,16.00
2019-05-16T17:14:57.833Z,31.42
2019-05-16T17:17:28.813Z,26.45
2019-05-16T17:19:59.763Z,76.28
2019-05-16T17:22:30.839Z,17.42
2019-05-16T17:25:01.797Z,18.62
2019-05-16T17:27:32.840Z,22.65
2019-05-16T17:30:06.907Z,15.83
2019-05-16T17:32:38.874Z,15.15
2019-05-16T17:35:11.587Z,14.65
2019-05-16T17:37:42.578Z,16.82
2019-05-16T17:40:17.572Z,18.40
2019-05-16T17:42:48.345Z,30.35
2019-05-16T17:45:21.100Z,17.12
2019-05-16T17:47:52.188Z,25.50
2019-05-16T17:50:26.190Z,44.42
2019-05-16T17:52:57.821Z,20.08
2019-05-16T17:55:29.990Z,16.02
2019-05-16T17:58:00.970Z,15.83
2019-05-16T18:00:32.094Z,16.70
2019-05-16T18:03:03.168Z,19.00
2019-05-16T18:05:36.811Z,19.57
2019-05-16T18:08:07.662Z,14.87
2019-05-16T18:10:39.008Z,18.82
2019-05-16T18:13:09.959Z,22.67
2019-05-16T18:15:40.937Z,19.67
2019-05-16T18:18:11.888Z,15.20
2019-05-16T18:20:54.941Z,20.68
2019-05-16T18:23:16.475Z,15.38
2019-05-16T18:25:47.579Z,38.73
2019-05-16T18:28:18.520Z,17.70
2019-05-16T18:30:49.508Z,18.98
2019-05-16T18:33:21.508Z,16.80
2019-05-16T18:35:52.509Z,19.25
2019-05-16T18:38:23.457Z,15.08
2019-05-16T18:40:56.532Z,17.73
2019-05-16T18:43:27.306Z,17.35
2019-05-16T18:45:59.391Z,17.05
2019-05-16T18:48:30.337Z,15.53
2019-05-16T18:51:01.317Z,15.23
2019-05-16T18:53:32.274Z,17.95
2019-05-16T18:56:03.263Z,19.92
2019-05-16T18:58:34.267Z,18.85
2019-05-16T19:01:06.679Z,18.02
2019-05-16T19:03:37.881Z,19.80
2019-05-16T19:06:08.941Z,21.17
2019-05-16T19:08:39.881Z,22.65
2019-05-16T19:11:10.851Z,18.52
2019-05-16T19:13:41.799Z,20.70
2019-05-16T19:16:12.788Z,19.27
2019-05-16T19:18:43.782Z,20.02
2019-05-16T19:21:16.712Z,18.57
2019-05-16T19:23:47.401Z,17.57
2019-05-16T19:26:18.475Z,20.52
2019-05-16T19:28:49.412Z,17.02
2019-05-16T19:31:20.408Z,21.70
2019-05-16T19:33:51.396Z,21.10
2019-05-16T19:36:22.574Z,16.37
2019-05-16T19:38:57.599Z,19.05
2019-05-16T19:41:28.749Z,16.82
2019-05-16T19:43:59.683Z,20.92
2019-05-16T19:46:30.683Z,22.00
2019-05-16T19:49:01.621Z,16.15
2019-05-16T19:51:32.680Z,21.77
2019-05-16T19:54:03.655Z,21.80
2019-05-16T19:56:34.594Z,19.27
2019-05-16T19:59:06.653Z,17.23
2019-05-16T20:01:37.905Z,21.12
2019-05-16T20:04:09.008Z,26.65
2019-05-16T20:06:39.951Z,21.17
2019-05-16T20:09:11.051Z,19.32
2019-05-16T20:11:41.978Z,25.05
2019-05-16T20:14:12.955Z,23.77
2019-05-16T20:16:43.903Z,19.45
2019-05-16T20:19:14.877Z,18.17
2019-05-16T20:21:47.629Z,19.57
2019-05-16T20:24:18.744Z,21.65
2019-05-16T20:26:49.715Z,24.57
2019-05-16T20:29:20.660Z,18.75
2019-05-16T20:31:51.700Z,23.35
2019-05-16T20:34:22.654Z,24.77
2019-05-16T20:36:53.628Z,33.83
2019-05-16T20:39:26.695Z,23.45
2019-05-16T20:41:59.712Z,22.67
2019-05-16T20:44:30.022Z,18.87
2019-05-16T20:47:01.005Z,24.18
2019-05-16T20:49:31.943Z,23.55
2019-05-16T20:52:02.926Z,22.52
2019-05-16T20:54:33.953Z,23.50
2019-05-16T20:57:06.775Z,19.75
2019-05-16T20:59:37.691Z,19.27
2019-05-16T21:02:08.776Z,21.05
2019-05-16T21:04:39.748Z,18.80
2019-05-16T21:07:11.390Z,19.98
2019-05-16T21:09:42.467Z,18.75
2019-05-16T21:12:13.442Z,18.80
2019-05-16T21:14:44.396Z,19.32
2019-05-16T21:17:17.426Z,18.57
2019-05-16T21:19:48.431Z,18.95
2019-05-16T21:22:19.581Z,22.45
2019-05-16T21:24:50.741Z,23.62
2019-05-16T21:27:21.743Z,22.60
2019-05-16T21:29:52.715Z,21.27
2019-05-16T21:32:23.652Z,19.45
2019-05-16T21:34:56.580Z,26.23
2019-05-16T21:37:27.270Z,21.23
2019-05-16T21:39:59.769Z,24.90
2019-05-16T21:42:30.982Z,24.80
2019-05-16T21:45:02.021Z,26.57
2019-05-16T21:47:36.766Z,22.65
2019-05-16T21:50:10.154Z,24.27
2019-05-16T21:52:41.166Z,23.45
2019-05-16T21:55:12.544Z,25.85
2019-05-16T21:57:43.575Z,26.60
2019-05-16T22:00:43.898Z,26.60
2019-05-16T22:03:15.569Z,23.75
2019-05-16T22:05:46.684Z,26.40
2019-05-16T22:08:17.701Z,25.60
2019-05-16T22:10:49.660Z,27.70
2019-05-16T22:13:20.957Z,37.40
2019-05-16T22:15:51.968Z,33.83
2019-05-16T22:18:22.951Z,33.67
2019-05-16T22:20:56.998Z,36.70
2019-05-16T22:23:29.217Z,33.73
2019-05-16T22:26:00.177Z,41.77
2019-05-16T22:28:31.346Z,38.25
2019-05-16T22:31:02.292Z,54.45
2019-05-16T22:33:33.328Z,48.25
2019-05-16T22:36:06.831Z,47.30
2019-05-16T22:38:36.961Z,49.13
2019-05-16T22:41:10.587Z,44.80
2019-05-16T22:43:40.596Z,51.25
2019-05-16T22:46:11.645Z,53.60
2019-05-16T22:48:42.625Z,48.38
2019-05-16T22:51:13.620Z,49.55
2019-05-16T22:53:44.569Z,58.52
2019-05-16T22:56:17.383Z,52.20
2019-05-16T22:58:48.535Z,57.38
2019-05-16T23:01:19.556Z,57.33
2019-05-16T23:03:50.533Z,52.67
2019-05-16T23:06:21.553Z,60.58
2019-05-16T23:08:52.501Z,54.10
2019-05-16T23:11:23.478Z,57.62
2019-05-16T23:13:56.724Z,57.40
2019-05-16T23:16:27.303Z,56.88
2019-05-16T23:18:58.244Z,60.15
2019-05-16T23:21:29.228Z,69.90
2019-05-16T23:24:00.179Z,63.87
2019-05-16T23:26:31.263Z,72.47
2019-05-16T23:29:02.242Z,58.05
2019-05-16T23:31:33.188Z,61.75
2019-05-16T23:34:04.170Z,59.53
2019-05-16T23:36:37.036Z,68.90
2019-05-16T23:39:09.101Z,58.28
2019-05-16T23:41:40.056Z,64.62
2019-05-16T23:44:11.041Z,67.30
2019-05-16T23:46:41.988Z,65.00
2019-05-16T23:49:12.977Z,62.25
2019-05-16T23:51:43.948Z,65.70
2019-05-16T23:54:17.083Z,56.13
2019-05-16T23:56:47.563Z,66.22
2019-05-16T23:59:18.538Z,68.33
